Time;durP1;ratioP1;P1;durP2;ratioP2;P2;SDS_P1;SDS_P2;PMS_P1;PMS_P2;Temp;Humidity;BMP_temperature;BMP_pressure;BME280_temperature;BME280_humidity;BME280_pressure;Samples;Min_cycle;Max_cycle;Signal;HPM_P1;HPM_P2
2021/10/25 00:01:13;;;;;;;26.73;17.23;;;;;;;;;;5042198;28;20037;-73
2021/10/25 00:03:39;;;;;;;28.02;17.98;;;;;;;;;;5010472;28;20053;-73
2021/10/25 00:06:05;;;;;;;28.45;18.10;;;;;;;;;;5009309;28;20122;-73
2021/10/25 00:08:31;;;;;;;27.13;17.20;;;;;;;;;;5011303;28;20049;-73
2021/10/25 00:10:57;;;;;;;35.75;18.95;;;;;;;;;;5008546;28;20132;-73
2021/10/25 00:13:24;;;;;;;34.15;18.25;;;;;;;;;;5009773;28;20042;-73
2021/10/25 00:15:50;;;;;;;23.40;15.50;;;;;;;;;;5012309;28;20045;-72
2021/10/25 00:18:16;;;;;;;28.75;17.73;;;;;;;;;;5006981;28;20490;-72
2021/10/25 00:20:42;;;;;;;34.22;18.60;;;;;;;;;;5005385;28;20029;-73
2021/10/25 00:23:08;;;;;;;32.88;19.10;;;;;;;;;;4991118;28;20041;-73
2021/10/25 00:25:34;;;;;;;35.95;18.55;;;;;;;;;;4992433;28;20129;-73
2021/10/25 00:28:01;;;;;;;34.10;18.95;;;;;;;;;;5012242;28;20497;-73
2021/10/25 00:30:27;;;;;;;28.05;18.90;;;;;;;;;;5009152;28;20041;-73
2021/10/25 00:32:53;;;;;;;34.78;19.38;;;;;;;;;;5010171;28;20045;-73
2021/10/25 00:35:20;;;;;;;28.75;18.27;;;;;;;;;;5008207;28;20439;-73
2021/10/25 00:37:46;;;;;;;29.60;18.33;;;;;;;;;;5007610;28;20042;-73
2021/10/25 00:40:12;;;;;;;32.78;18.70;;;;;;;;;;5004381;28;20041;-73
2021/10/25 00:42:38;;;;;;;29.23;18.60;;;;;;;;;;5006292;28;20085;-73
2021/10/25 00:45:05;;;;;;;32.78;18.17;;;;;;;;;;5010637;28;20431;-73
2021/10/25 00:47:31;;;;;;;32.15;19.33;;;;;;;;;;5013667;28;20041;-73
2021/10/25 00:49:57;;;;;;;27.73;17.27;;;;;;;;;;5014319;28;20041;-73
2021/10/25 00:52:24;;;;;;;29.70;19.92;;;;;;;;;;5014381;28;20053;-73
2021/10/25 00:54:50;;;;;;;30.73;19.80;;;;;;;;;;5014036;28;20189;-73
2021/10/25 00:57:17;;;;;;;38.15;20.17;;;;;;;;;;4996018;28;20060;-73
2021/10/25 00:59:43;;;;;;;33.55;20.83;;;;;;;;;;5014490;28;20045;-73
2021/10/25 01:02:09;;;;;;;33.35;20.42;;;;;;;;;;5030851;28;20404;-72
2021/10/25 01:04:36;;;;;;;33.05;19.98;;;;;;;;;;4996007;28;20398;-73
2021/10/25 01:07:03;;;;;;;34.80;21.33;;;;;;;;;;5016922;28;20116;-73
2021/10/25 01:09:30;;;;;;;38.67;22.48;;;;;;;;;;5013253;28;20482;-73
2021/10/25 01:11:57;;;;;;;41.55;22.45;;;;;;;;;;5012926;28;20046;-73
2021/10/25 01:14:23;;;;;;;34.55;21.38;;;;;;;;;;5015482;28;20046;-73
2021/10/25 01:16:49;;;;;;;35.42;21.17;;;;;;;;;;5014798;28;20041;-73
2021/10/25 01:19:16;;;;;;;33.88;22.02;;;;;;;;;;5012778;28;20252;-73
2021/10/25 01:21:42;;;;;;;44.75;23.35;;;;;;;;;;5014004;28;20347;-73
2021/10/25 01:24:08;;;;;;;37.78;21.60;;;;;;;;;;5013886;28;20123;-72
2021/10/25 01:26:34;;;;;;;35.85;21.02;;;;;;;;;;5014553;28;20053;-73
2021/10/25 01:29:00;;;;;;;36.05;22.17;;;;;;;;;;4995729;28;20041;-73
2021/10/25 01:31:27;;;;;;;38.38;22.45;;;;;;;;;;5012059;28;20133;-73
2021/10/25 01:33:53;;;;;;;39.83;22.52;;;;;;;;;;4996593;28;20049;-72
2021/10/25 01:36:20;;;;;;;40.88;23.08;;;;;;;;;;5011485;28;20046;-73
2021/10/25 01:38:46;;;;;;;36.03;22.17;;;;;;;;;;5012530;28;20042;-73
2021/10/25 01:41:12;;;;;;;42.45;22.85;;;;;;;;;;5014601;28;20104;-73
2021/10/25 01:43:39;;;;;;;37.42;23.33;;;;;;;;;;5024681;28;20077;-73
2021/10/25 01:46:06;;;;;;;39.80;23.00;;;;;;;;;;5004293;28;20508;-73
2021/10/25 01:48:32;;;;;;;44.35;25.48;;;;;;;;;;5029368;28;20122;-73
2021/10/25 01:50:59;;;;;;;45.88;23.80;;;;;;;;;;5014336;28;20050;-73
2021/10/25 01:53:25;;;;;;;39.47;22.60;;;;;;;;;;5011007;28;20046;-73
2021/10/25 01:55:59;;;;;;;45.42;25.83;;;;;;;;;;5029601;28;20133;-73
2021/10/25 01:58:26;;;;;;;51.75;26.38;;;;;;;;;;5009174;28;20049;-73
2021/10/25 02:00:52;;;;;;;48.53;26.58;;;;;;;;;;5011647;28;20435;-73
2021/10/25 02:03:19;;;;;;;47.78;26.38;;;;;;;;;;5012585;28;20049;-73
2021/10/25 02:05:45;;;;;;;42.42;26.25;;;;;;;;;;5013537;28;20065;-73
2021/10/25 02:08:11;;;;;;;49.22;26.02;;;;;;;;;;5010566;28;20046;-73
2021/10/25 02:10:37;;;;;;;46.15;26.40;;;;;;;;;;5013137;28;20155;-73
2021/10/25 02:13:04;;;;;;;49.42;28.00;;;;;;;;;;4994806;28;20076;-73
2021/10/25 02:15:30;;;;;;;45.13;26.50;;;;;;;;;;5011932;28;20049;-73
2021/10/25 02:17:56;;;;;;;46.15;25.88;;;;;;;;;;5014095;28;20121;-73
2021/10/25 02:20:23;;;;;;;51.70;26.38;;;;;;;;;;5013810;28;20041;-73
2021/10/25 02:22:49;;;;;;;44.85;24.83;;;;;;;;;;5007368;28;20065;-73
2021/10/25 02:25:15;;;;;;;46.10;26.60;;;;;;;;;;5014263;28;20089;-73
2021/10/25 02:27:41;;;;;;;43.30;25.88;;;;;;;;;;5010058;28;20327;-73
2021/10/25 02:30:08;;;;;;;47.78;25.38;;;;;;;;;;5014059;28;20151;-73
2021/10/25 02:32:34;;;;;;;45.58;27.75;;;;;;;;;;5029997;28;20054;-73
2021/10/25 02:35:00;;;;;;;51.00;28.85;;;;;;;;;;5013886;28;20037;-73
2021/10/25 02:37:26;;;;;;;49.10;28.35;;;;;;;;;;5009529;28;20042;-73
2021/10/25 02:39:53;;;;;;;53.47;27.67;;;;;;;;;;5015146;28;20389;-72
2021/10/25 02:42:19;;;;;;;51.03;28.35;;;;;;;;;;5010432;28;20437;-73
2021/10/25 02:44:45;;;;;;;46.47;28.85;;;;;;;;;;5013727;28;20041;-73
2021/10/25 02:47:11;;;;;;;49.42;29.23;;;;;;;;;;5011280;28;20069;-73
2021/10/25 02:49:37;;;;;;;50.75;29.63;;;;;;;;;;5013850;28;20051;-73
2021/10/25 02:52:05;;;;;;;51.10;28.65;;;;;;;;;;5010673;28;20046;-73
2021/10/25 02:54:31;;;;;;;47.10;28.75;;;;;;;;;;5008573;28;20045;-73
2021/10/25 02:56:57;;;;;;;45.03;27.90;;;;;;;;;;5011072;28;20056;-73
2021/10/25 02:59:23;;;;;;;45.63;28.80;;;;;;;;;;5011970;28;20133;-73
2021/10/25 03:01:49;;;;;;;46.03;26.88;;;;;;;;;;5010207;28;20042;-73
2021/10/25 03:04:16;;;;;;;42.05;27.33;;;;;;;;;;5008196;28;20076;-73
2021/10/25 03:06:42;;;;;;;47.55;29.25;;;;;;;;;;5013392;28;20041;-73
2021/10/25 03:09:09;;;;;;;45.88;26.50;;;;;;;;;;5011447;28;20046;-73
2021/10/25 03:11:35;;;;;;;42.92;26.52;;;;;;;;;;5011050;28;20081;-73
2021/10/25 03:14:02;;;;;;;46.72;27.88;;;;;;;;;;5013731;28;20054;-73
2021/10/25 03:16:28;;;;;;;52.10;26.75;;;;;;;;;;5026126;28;20069;-73
2021/10/25 03:18:54;;;;;;;45.85;26.75;;;;;;;;;;5010063;28;20096;-73
2021/10/25 03:21:22;;;;;;;42.75;26.15;;;;;;;;;;5010026;28;20094;-73
2021/10/25 03:23:49;;;;;;;44.28;26.08;;;;;;;;;;5010451;28;20408;-73
2021/10/25 03:26:16;;;;;;;44.78;26.33;;;;;;;;;;5010413;28;20495;-73
2021/10/25 03:28:42;;;;;;;47.83;29.33;;;;;;;;;;5009618;28;20046;-73
2021/10/25 03:31:10;;;;;;;43.95;28.50;;;;;;;;;;5012408;28;20053;-73
2021/10/25 03:33:36;;;;;;;53.92;30.52;;;;;;;;;;5012522;28;20474;-72
2021/10/25 03:36:04;;;;;;;44.80;28.83;;;;;;;;;;5026867;28;20073;-73
2021/10/25 03:38:32;;;;;;;52.67;30.05;;;;;;;;;;5011592;28;20058;-73
2021/10/25 03:40:58;;;;;;;47.95;29.55;;;;;;;;;;5011515;28;20076;-73
2021/10/25 03:43:29;;;;;;;47.67;28.40;;;;;;;;;;5008353;28;20080;-73
2021/10/25 03:46:08;;;;;;;46.25;28.77;;;;;;;;;;5027561;28;20050;-73
2021/10/25 03:48:44;;;;;;;47.58;30.00;;;;;;;;;;5009720;28;20494;-73
2021/10/25 03:51:13;;;;;;;42.42;28.35;;;;;;;;;;5010834;28;20046;-73
2021/10/25 03:53:47;;;;;;;47.92;27.13;;;;;;;;;;5011273;28;20057;-73
2021/10/25 03:56:28;;;;;;;;;;;;;;;;;;5010942;28;20046;-73
2021/10/25 04:26:16;;;;;;;39.67;26.33;;;;;;;;;;5009972;28;20419;-73
2021/10/25 04:28:43;;;;;;;43.08;26.27;;;;;;;;;;5009584;28;20142;-73
2021/10/25 04:31:10;;;;;;;39.85;26.65;;;;;;;;;;5028372;28;20061;-73
2021/10/25 04:33:36;;;;;;;41.60;26.38;;;;;;;;;;5008799;28;20050;-72
2021/10/25 04:36:02;;;;;;;42.25;27.98;;;;;;;;;;5025138;28;20046;-73
2021/10/25 04:38:28;;;;;;;38.38;25.40;;;;;;;;;;5013318;28;20088;-73
2021/10/25 04:40:54;;;;;;;44.95;26.75;;;;;;;;;;5008531;28;20046;-73
2021/10/25 04:43:20;;;;;;;40.97;26.20;;;;;;;;;;5010546;28;20543;-73
2021/10/25 04:45:47;;;;;;;43.35;26.33;;;;;;;;;;5013590;28;20401;-79
2021/10/25 04:48:13;;;;;;;40.78;25.80;;;;;;;;;;5005660;28;20057;-73
2021/10/25 04:50:41;;;;;;;42.55;27.45;;;;;;;;;;5006623;28;20057;-73
2021/10/25 04:53:07;;;;;;;39.92;25.20;;;;;;;;;;5008915;28;20409;-73
2021/10/25 04:55:34;;;;;;;38.13;25.05;;;;;;;;;;5013199;28;20151;-73
2021/10/25 04:58:00;;;;;;;38.85;25.42;;;;;;;;;;5025440;28;20143;-73
2021/10/25 05:00:27;;;;;;;39.45;27.35;;;;;;;;;;5007923;28;20049;-73
2021/10/25 05:02:55;;;;;;;38.95;26.25;;;;;;;;;;4989248;28;20057;-73
2021/10/25 05:05:21;;;;;;;40.70;25.85;;;;;;;;;;5006545;28;20086;-73
2021/10/25 05:07:47;;;;;;;38.53;25.52;;;;;;;;;;5007748;28;20041;-73
2021/10/25 05:10:13;;;;;;;39.30;25.30;;;;;;;;;;5011299;28;20063;-73
2021/10/25 05:12:39;;;;;;;40.35;27.88;;;;;;;;;;5027811;28;20053;-73
2021/10/25 05:15:06;;;;;;;41.88;25.67;;;;;;;;;;5009978;28;20722;-73
2021/10/25 05:17:32;;;;;;;37.83;26.17;;;;;;;;;;5028978;28;20046;-73
2021/10/25 05:19:58;;;;;;;47.72;27.77;;;;;;;;;;5010001;28;20057;-74
2021/10/25 05:22:25;;;;;;;45.38;26.60;;;;;;;;;;5013668;28;20121;-74
2021/10/25 05:24:51;;;;;;;44.58;27.67;;;;;;;;;;5007200;28;20065;-74
2021/10/25 05:27:20;;;;;;;47.72;31.02;;;;;;;;;;5009476;28;20065;-75
2021/10/25 05:29:46;;;;;;;54.83;31.35;;;;;;;;;;5022787;28;21385;-75
2021/10/25 05:32:13;;;;;;;48.13;30.25;;;;;;;;;;5026060;28;20045;-75
2021/10/25 05:34:39;;;;;;;52.55;31.73;;;;;;;;;;5008784;28;20372;-74
2021/10/25 05:37:08;;;;;;;51.95;30.77;;;;;;;;;;5010972;28;20482;-75
2021/10/25 05:39:34;;;;;;;53.22;30.98;;;;;;;;;;5012370;28;20533;-75
2021/10/25 05:42:04;;;;;;;55.38;34.47;;;;;;;;;;5012061;28;20114;-74
2021/10/25 05:44:30;;;;;;;58.45;34.67;;;;;;;;;;5010446;28;20111;-75
2021/10/25 05:46:58;;;;;;;59.55;35.40;;;;;;;;;;4996427;28;20048;-73
2021/10/25 05:49:24;;;;;;;60.45;35.58;;;;;;;;;;5015171;28;20107;-74
2021/10/25 05:51:50;;;;;;;63.67;36.35;;;;;;;;;;5014804;28;20053;-74
2021/10/25 05:54:16;;;;;;;63.78;37.15;;;;;;;;;;5014961;28;20050;-74
2021/10/25 05:56:43;;;;;;;67.30;37.78;;;;;;;;;;5031988;28;20426;-74
2021/10/25 05:59:09;;;;;;;66.70;38.30;;;;;;;;;;5011939;28;20506;-74
2021/10/25 06:01:44;;;;;;;64.05;38.15;;;;;;;;;;5016016;28;20045;-74
2021/10/25 06:04:12;;;;;;;68.10;40.40;;;;;;;;;;4995547;28;20046;-74
2021/10/25 06:06:39;;;;;;;68.80;40.08;;;;;;;;;;4998079;28;20461;-74
2021/10/25 06:09:06;;;;;;;75.47;41.38;;;;;;;;;;5015841;28;20172;-74
2021/10/25 06:11:34;;;;;;;77.90;41.72;;;;;;;;;;5015728;28;20044;-74
2021/10/25 06:14:02;;;;;;;78.95;44.38;;;;;;;;;;4997827;28;20045;-74
2021/10/25 06:16:40;;;;;;;76.75;44.17;;;;;;;;;;5015029;28;20042;-74
2021/10/25 06:19:07;;;;;;;77.93;44.58;;;;;;;;;;5016561;28;20041;-74
2021/10/25 06:21:34;;;;;;;84.20;46.40;;;;;;;;;;5013857;28;20231;-74
2021/10/25 06:24:00;;;;;;;92.80;47.70;;;;;;;;;;5045267;28;20050;-74
2021/10/25 06:26:27;;;;;;;92.85;49.08;;;;;;;;;;5010499;28;20096;-74
2021/10/25 06:28:53;;;;;;;95.43;50.47;;;;;;;;;;5018390;28;20113;-74
2021/10/25 06:31:20;;;;;;;97.72;51.20;;;;;;;;;;4995741;28;20049;-74
2021/10/25 06:33:47;;;;;;;112.05;51.97;;;;;;;;;;5015923;28;20049;-74
2021/10/25 06:36:13;;;;;;;113.18;56.00;;;;;;;;;;5014771;28;20331;-74
2021/10/25 06:38:51;;;;;;;108.30;53.67;;;;;;;;;;5011958;28;20037;-74
2021/10/25 06:41:20;;;;;;;113.85;56.03;;;;;;;;;;5014214;28;20050;-74
2021/10/25 06:43:46;;;;;;;118.72;55.17;;;;;;;;;;5015784;28;20053;-74
2021/10/25 06:46:12;;;;;;;110.18;54.22;;;;;;;;;;5013141;28;20096;-74
2021/10/25 06:48:39;;;;;;;108.18;53.58;;;;;;;;;;5009713;28;20041;-74
2021/10/25 06:51:05;;;;;;;111.43;56.13;;;;;;;;;;5016577;28;20051;-73
2021/10/25 06:53:32;;;;;;;120.95;57.42;;;;;;;;;;5014882;28;20095;-75
2021/10/25 06:55:58;;;;;;;111.03;56.47;;;;;;;;;;5009690;28;20072;-76
2021/10/25 06:58:24;;;;;;;119.90;57.63;;;;;;;;;;5028238;28;20049;-76
2021/10/25 07:00:51;;;;;;;118.03;55.70;;;;;;;;;;5012003;28;20180;-76
2021/10/25 07:03:18;;;;;;;108.68;54.80;;;;;;;;;;5014522;28;20089;-75
2021/10/25 07:05:44;;;;;;;118.90;57.80;;;;;;;;;;4995322;28;20052;-76
2021/10/25 07:08:14;;;;;;;111.22;56.85;;;;;;;;;;4993933;28;20129;-76
2021/10/25 07:10:40;;;;;;;105.40;53.47;;;;;;;;;;5011701;28;20092;-76
2021/10/25 07:13:06;;;;;;;106.35;55.22;;;;;;;;;;5014047;28;20521;-76
2021/10/25 07:15:35;;;;;;;109.32;54.30;;;;;;;;;;5012008;28;20454;-76
2021/10/25 07:18:12;;;;;;;109.05;54.78;;;;;;;;;;5013908;28;20148;-76
2021/10/25 07:21:04;;;;;;;106.55;57.70;;;;;;;;;;5024167;28;20045;-76
2021/10/25 08:09:05;;;;;;;106.25;51.13;;;;;;;;;;5027987;28;20512;-75
2021/10/25 08:11:37;;;;;;;106.93;52.47;;;;;;;;;;5008068;28;20053;-80
2021/10/25 08:14:06;;;;;;;117.18;55.72;;;;;;;;;;5013537;28;20109;-75
2021/10/25 08:16:56;;;;;;;121.47;56.05;;;;;;;;;;5013776;28;20049;-75
2021/10/25 08:19:26;;;;;;;108.93;53.45;;;;;;;;;;5037401;28;20046;-75
2021/10/25 08:21:58;;;;;;;108.68;52.90;;;;;;;;;;5007054;28;20485;-74
2021/10/25 08:24:25;;;;;;;102.97;53.35;;;;;;;;;;5014120;28;20062;-74
2021/10/25 08:26:51;;;;;;;103.32;52.35;;;;;;;;;;5004276;28;20137;-75
2021/10/25 08:29:18;;;;;;;110.32;53.55;;;;;;;;;;5007301;28;20100;-75
2021/10/25 08:31:49;;;;;;;111.20;52.72;;;;;;;;;;5008088;28;20116;-75
2021/10/25 08:34:34;;;;;;;111.43;53.45;;;;;;;;;;5004326;28;20152;-75
2021/10/25 08:39:47;;;;;;;110.55;54.67;;;;;;;;;;5015021;28;20049;-75
2021/10/25 08:42:15;;;;;;;99.15;50.10;;;;;;;;;;5010922;28;20417;-75
2021/10/25 08:44:42;;;;;;;99.50;49.05;;;;;;;;;;5028166;28;20080;-74
2021/10/25 08:47:09;;;;;;;100.07;50.70;;;;;;;;;;5005275;28;20437;-75
2021/10/25 08:49:35;;;;;;;106.13;50.67;;;;;;;;;;5001718;28;20686;-74
2021/10/25 08:52:01;;;;;;;96.75;49.65;;;;;;;;;;5007229;28;20654;-75
2021/10/25 08:54:28;;;;;;;102.97;50.47;;;;;;;;;;5007313;28;20046;-74
2021/10/25 08:56:57;;;;;;;96.82;49.17;;;;;;;;;;5002390;28;20104;-75
2021/10/25 08:59:24;;;;;;;99.10;50.40;;;;;;;;;;5023076;28;20536;-77
2021/10/25 09:01:51;;;;;;;96.93;48.05;;;;;;;;;;5023613;28;20072;-75
2021/10/25 09:04:19;;;;;;;100.28;49.28;;;;;;;;;;5005659;28;20482;-75
2021/10/25 09:06:51;;;;;;;95.90;48.97;;;;;;;;;;5007933;28;20549;-75
2021/10/25 09:09:18;;;;;;;94.55;48.13;;;;;;;;;;5006903;28;20046;-75
2021/10/25 09:11:55;;;;;;;102.25;48.90;;;;;;;;;;5009887;28;20046;-76
2021/10/25 09:14:21;;;;;;;84.22;45.20;;;;;;;;;;5009538;28;20125;-78
2021/10/25 09:16:54;;;;;;;87.85;45.03;;;;;;;;;;5024815;28;20045;-75
2021/10/25 09:19:21;;;;;;;86.30;45.03;;;;;;;;;;5038160;28;20111;-76
2021/10/25 09:21:47;;;;;;;98.22;46.80;;;;;;;;;;5005268;28;20046;-75
2021/10/25 09:24:17;;;;;;;82.68;45.22;;;;;;;;;;5007944;28;20094;-76
2021/10/25 09:26:43;;;;;;;89.35;44.42;;;;;;;;;;5005693;28;20038;-75
2021/10/25 09:29:09;;;;;;;80.82;43.88;;;;;;;;;;5010064;28;20179;-76
2021/10/25 09:31:36;;;;;;;85.47;44.00;;;;;;;;;;5024954;28;20072;-75
2021/10/25 09:34:06;;;;;;;73.05;41.08;;;;;;;;;;5010598;28;20135;-75
2021/10/25 09:36:37;;;;;;;69.80;38.53;;;;;;;;;;5008633;28;20509;-76
2021/10/25 09:39:17;;;;;;;71.15;39.72;;;;;;;;;;5008681;28;20053;-75
2021/10/25 09:49:51;;;;;;;64.13;36.38;;;;;;;;;;5021714;28;20045;-75
2021/10/25 09:52:17;;;;;;;64.45;36.67;;;;;;;;;;4995339;28;20042;-76
2021/10/25 09:54:44;;;;;;;54.05;34.45;;;;;;;;;;4992824;28;20481;-75
2021/10/25 09:57:13;;;;;;;61.58;34.95;;;;;;;;;;5021102;28;20053;-75
2021/10/25 09:59:56;;;;;;;60.10;35.72;;;;;;;;;;5008560;28;20056;-75
2021/10/25 10:02:23;;;;;;;66.25;35.60;;;;;;;;;;5009995;28;20040;-75
2021/10/25 10:04:56;;;;;;;57.80;34.70;;;;;;;;;;5007760;28;20062;-75
2021/10/25 10:07:22;;;;;;;60.03;35.92;;;;;;;;;;5042252;28;20046;-76
2021/10/25 10:09:49;;;;;;;52.97;32.92;;;;;;;;;;5008523;28;20748;-75
2021/10/25 10:12:18;;;;;;;58.00;35.45;;;;;;;;;;5009446;28;20053;-76
2021/10/25 10:14:48;;;;;;;57.80;33.78;;;;;;;;;;5006366;28;20038;-80
2021/10/25 10:17:18;;;;;;;52.50;33.45;;;;;;;;;;5007986;28;20072;-85
2021/10/25 10:19:45;;;;;;;62.55;35.78;;;;;;;;;;5008341;28;20080;-78
2021/10/25 10:22:12;;;;;;;45.80;31.42;;;;;;;;;;5007375;28;20115;-75
2021/10/25 10:24:40;;;;;;;54.80;33.17;;;;;;;;;;5002728;28;20041;-76
2021/10/25 10:27:08;;;;;;;48.60;31.05;;;;;;;;;;5007728;28;20227;-77
2021/10/25 10:29:37;;;;;;;48.15;31.40;;;;;;;;;;5003953;28;20056;-76
2021/10/25 10:32:05;;;;;;;50.20;30.60;;;;;;;;;;5003389;28;21352;-77
2021/10/25 10:34:39;;;;;;;48.72;31.90;;;;;;;;;;5040448;28;20038;-77
2021/10/25 10:37:14;;;;;;;52.22;30.38;;;;;;;;;;5011265;28;20129;-77
2021/10/25 10:39:40;;;;;;;58.20;32.13;;;;;;;;;;5010274;28;20350;-77
2021/10/25 10:42:07;;;;;;;48.67;31.05;;;;;;;;;;5009137;28;20509;-77
2021/10/25 10:44:33;;;;;;;48.55;30.27;;;;;;;;;;5007607;28;20057;-77
2021/10/25 10:47:02;;;;;;;47.97;30.27;;;;;;;;;;5009505;28;20490;-77
2021/10/25 10:49:33;;;;;;;53.40;32.25;;;;;;;;;;5008854;28;20038;-77
2021/10/25 10:52:04;;;;;;;49.38;30.15;;;;;;;;;;5013936;28;20060;-77
2021/10/25 10:54:45;;;;;;;44.63;27.00;;;;;;;;;;5013529;28;20169;-78
2021/10/25 10:57:25;;;;;;;45.55;27.63;;;;;;;;;;5011691;28;20057;-76
2021/10/25 10:59:56;;;;;;;43.60;25.35;;;;;;;;;;5014117;28;20125;-75
2021/10/25 11:02:22;;;;;;;47.22;26.98;;;;;;;;;;5010375;28;20056;-76
2021/10/25 11:04:50;;;;;;;48.75;25.95;;;;;;;;;;5010712;28;20095;-76
2021/10/25 11:07:17;;;;;;;37.67;24.60;;;;;;;;;;5011847;28;20433;-76
2021/10/25 11:09:44;;;;;;;38.35;23.58;;;;;;;;;;4991637;28;20041;-76
2021/10/25 11:12:12;;;;;;;41.40;24.38;;;;;;;;;;4994635;28;20060;-76
2021/10/25 11:14:39;;;;;;;54.55;26.15;;;;;;;;;;5014210;28;20092;-77
2021/10/25 11:17:18;;;;;;;38.30;25.45;;;;;;;;;;5010109;28;20084;-77
2021/10/25 11:19:47;;;;;;;38.17;24.67;;;;;;;;;;5008866;28;20041;-77
2021/10/25 11:22:23;;;;;;;41.45;24.27;;;;;;;;;;5007684;28;20050;-77
2021/10/25 11:24:51;;;;;;;36.58;23.70;;;;;;;;;;5029514;28;20049;-77
2021/10/25 11:27:23;;;;;;;35.38;23.02;;;;;;;;;;5040625;28;20041;-77
2021/10/25 11:29:49;;;;;;;38.08;22.30;;;;;;;;;;5013326;28;20044;-77
2021/10/25 11:32:15;;;;;;;34.97;22.08;;;;;;;;;;5013692;28;20152;-77
2021/10/25 11:34:46;;;;;;;38.55;24.95;;;;;;;;;;5011959;28;20111;-77
2021/10/25 11:37:17;;;;;;;36.47;23.77;;;;;;;;;;5007640;28;20041;-77
2021/10/25 11:39:54;;;;;;;44.25;23.80;;;;;;;;;;4992131;28;20120;-76
2021/10/25 11:42:23;;;;;;;37.00;22.63;;;;;;;;;;5038845;28;20050;-76
2021/10/25 11:44:51;;;;;;;39.42;23.55;;;;;;;;;;5012886;28;20117;-76
2021/10/25 11:47:21;;;;;;;43.85;25.10;;;;;;;;;;5009937;28;20038;-76
2021/10/25 11:49:48;;;;;;;39.25;25.02;;;;;;;;;;5025229;28;20060;-77
2021/10/25 11:52:14;;;;;;;47.72;26.10;;;;;;;;;;5010648;28;20064;-77
2021/10/25 11:54:45;;;;;;;49.00;27.15;;;;;;;;;;5007204;28;20057;-77
2021/10/25 11:57:12;;;;;;;43.95;25.77;;;;;;;;;;5041192;28;20417;-77
2021/10/25 11:59:39;;;;;;;48.10;26.65;;;;;;;;;;5023605;28;20064;-77
2021/10/25 12:02:10;;;;;;;44.00;25.98;;;;;;;;;;5011566;28;20072;-77
2021/10/25 12:04:43;;;;;;;42.40;26.58;;;;;;;;;;5007859;28;20424;-77
2021/10/25 12:07:09;;;;;;;46.47;27.08;;;;;;;;;;5026159;28;20076;-77
2021/10/25 12:09:35;;;;;;;49.03;28.40;;;;;;;;;;5008886;28;20409;-76
2021/10/25 12:12:05;;;;;;;45.28;27.48;;;;;;;;;;5025474;28;20065;-77
2021/10/25 12:14:35;;;;;;;57.03;29.45;;;;;;;;;;5009133;28;20045;-77
2021/10/25 12:17:02;;;;;;;51.53;29.83;;;;;;;;;;5007897;28;20458;-77
2021/10/25 12:19:29;;;;;;;57.22;30.52;;;;;;;;;;5007082;28;20042;-77
2021/10/25 12:21:55;;;;;;;56.10;30.55;;;;;;;;;;5008920;28;20486;-77
2021/10/25 12:24:22;;;;;;;58.60;30.20;;;;;;;;;;5021504;28;20058;-77
2021/10/25 12:27:00;;;;;;;66.60;33.90;;;;;;;;;;4990680;28;20450;-77
2021/10/25 12:29:26;;;;;;;67.15;33.55;;;;;;;;;;5007847;28;20048;-76
2021/10/25 12:31:53;;;;;;;69.75;35.05;;;;;;;;;;5009258;28;20058;-77
2021/10/25 12:34:19;;;;;;;78.47;36.17;;;;;;;;;;5024188;28;20077;-77
2021/10/25 12:36:46;;;;;;;73.65;36.17;;;;;;;;;;5009998;28;20038;-80
2021/10/25 12:39:14;;;;;;;72.78;35.20;;;;;;;;;;5006321;28;20049;-77
2021/10/25 12:41:49;;;;;;;80.82;36.47;;;;;;;;;;5007557;28;20393;-79
2021/10/25 12:44:25;;;;;;;83.25;38.08;;;;;;;;;;5012328;28;20042;-78
2021/10/25 12:46:55;;;;;;;74.40;36.67;;;;;;;;;;5016500;28;20046;-78
2021/10/25 12:49:22;;;;;;;86.38;36.15;;;;;;;;;;5019375;28;20045;-78
2021/10/25 12:51:48;;;;;;;88.25;36.92;;;;;;;;;;5030475;28;20087;-78
2021/10/25 12:54:15;;;;;;;85.00;38.17;;;;;;;;;;5035621;28;20119;-78
2021/10/25 12:56:42;;;;;;;84.88;35.88;;;;;;;;;;5032333;28;20543;-77
2021/10/25 12:59:09;;;;;;;85.13;36.60;;;;;;;;;;5013887;28;20041;-77
2021/10/25 13:01:36;;;;;;;81.30;35.97;;;;;;;;;;5015370;28;20037;-78
2021/10/25 13:04:03;;;;;;;83.60;35.50;;;;;;;;;;5032262;28;20037;-78
2021/10/25 13:06:31;;;;;;;80.38;35.58;;;;;;;;;;5011989;28;20048;-78
2021/10/25 13:08:59;;;;;;;85.18;37.45;;;;;;;;;;5015296;28;20048;-78
2021/10/25 13:11:25;;;;;;;78.68;35.38;;;;;;;;;;5041213;28;20038;-78
2021/10/25 13:13:52;;;;;;;88.25;37.08;;;;;;;;;;5011140;28;20091;-78
2021/10/25 13:16:20;;;;;;;78.97;35.78;;;;;;;;;;5010846;28;20053;-78
2021/10/25 13:18:46;;;;;;;64.72;30.83;;;;;;;;;;5013470;28;20049;-78
2021/10/25 13:21:13;;;;;;;68.88;32.25;;;;;;;;;;5013363;28;20080;-77
2021/10/25 13:23:41;;;;;;;70.90;33.00;;;;;;;;;;5014632;28;20065;-78
2021/10/25 13:26:07;;;;;;;69.20;32.83;;;;;;;;;;4995132;28;20539;-78
2021/10/25 13:28:33;;;;;;;80.95;35.28;;;;;;;;;;5011995;28;20042;-78
2021/10/25 13:30:59;;;;;;;78.22;33.58;;;;;;;;;;5013864;28;20061;-78
2021/10/25 13:33:33;;;;;;;76.72;35.15;;;;;;;;;;5030206;28;20073;-78
2021/10/25 13:35:59;;;;;;;70.38;32.67;;;;;;;;;;5009376;28;20095;-78
2021/10/25 13:38:25;;;;;;;73.72;35.35;;;;;;;;;;5010133;28;20203;-78
2021/10/25 13:40:51;;;;;;;85.38;36.55;;;;;;;;;;5010389;28;20049;-78
2021/10/25 13:43:18;;;;;;;84.45;37.20;;;;;;;;;;5008550;28;20048;-78
2021/10/25 13:45:45;;;;;;;75.38;36.10;;;;;;;;;;5029255;28;20073;-78
2021/10/25 13:48:14;;;;;;;76.25;36.53;;;;;;;;;;5011557;28;20049;-78
2021/10/25 13:50:40;;;;;;;76.25;36.20;;;;;;;;;;5012781;28;20121;-77
2021/10/25 13:53:06;;;;;;;78.10;37.78;;;;;;;;;;5011386;28;20045;-78
2021/10/25 13:55:32;;;;;;;84.20;39.92;;;;;;;;;;5029267;28;20100;-77
2021/10/25 13:57:59;;;;;;;75.47;37.50;;;;;;;;;;5009003;28;20046;-77
2021/10/25 14:00:25;;;;;;;71.55;34.30;;;;;;;;;;5011885;28;20053;-78
2021/10/25 14:02:54;;;;;;;68.32;34.03;;;;;;;;;;5010388;28;20139;-78
2021/10/25 14:05:21;;;;;;;66.93;32.03;;;;;;;;;;5011213;28;20056;-77
2021/10/25 14:07:48;;;;;;;64.35;32.80;;;;;;;;;;5008979;28;20502;-78
2021/10/25 14:10:25;;;;;;;65.68;32.20;;;;;;;;;;5012205;28;20176;-78
2021/10/25 14:12:51;;;;;;;78.57;36.10;;;;;;;;;;5028340;28;20173;-78
2021/10/25 14:15:25;;;;;;;84.10;37.40;;;;;;;;;;5010571;28;20045;-78
2021/10/25 14:17:52;;;;;;;80.05;35.28;;;;;;;;;;5008393;28;20041;-78
2021/10/25 14:20:20;;;;;;;81.53;36.63;;;;;;;;;;5010761;28;20205;-78
2021/10/25 14:22:47;;;;;;;83.03;36.83;;;;;;;;;;5027630;28;20049;-78
2021/10/25 14:25:14;;;;;;;87.93;37.30;;;;;;;;;;5008945;28;20052;-78
2021/10/25 14:27:40;;;;;;;84.97;36.72;;;;;;;;;;5010769;28;20046;-78
2021/10/25 14:30:08;;;;;;;94.38;38.25;;;;;;;;;;5028461;28;20045;-77
2021/10/25 14:32:34;;;;;;;93.70;37.85;;;;;;;;;;5027780;28;20050;-78
2021/10/25 14:35:02;;;;;;;87.35;36.25;;;;;;;;;;5011146;28;20071;-78
2021/10/25 14:37:32;;;;;;;97.15;38.85;;;;;;;;;;5008775;28;20062;-75
2021/10/25 14:40:01;;;;;;;93.70;38.28;;;;;;;;;;5008572;28;20128;-76
2021/10/25 14:42:32;;;;;;;92.88;37.88;;;;;;;;;;5011465;28;20049;-85
2021/10/25 14:45:14;;;;;;;88.18;37.63;;;;;;;;;;5009940;28;20045;-76
2021/10/25 14:53:24;;;;;;;79.05;36.72;;;;;;;;;;5007482;28;20053;-74
2021/10/25 14:58:21;;;;;;;90.22;38.78;;;;;;;;;;5020909;28;20065;-74
2021/10/25 15:00:47;;;;;;;85.85;39.50;;;;;;;;;;5002830;28;20034;-74
2021/10/25 15:03:13;;;;;;;92.70;40.63;;;;;;;;;;5005357;28;20122;-74
2021/10/25 15:05:41;;;;;;;93.78;39.58;;;;;;;;;;5004549;28;20042;-74
2021/10/25 15:08:08;;;;;;;88.03;39.22;;;;;;;;;;5003796;28;20430;-75
2021/10/25 15:10:34;;;;;;;84.72;38.08;;;;;;;;;;4988349;28;20073;-75
2021/10/25 15:13:01;;;;;;;90.93;38.25;;;;;;;;;;5007381;28;20052;-74
2021/10/25 15:15:28;;;;;;;88.18;38.50;;;;;;;;;;5003934;28;20159;-75
2021/10/25 15:17:54;;;;;;;87.13;39.92;;;;;;;;;;5003633;28;20045;-75
2021/10/25 15:20:21;;;;;;;85.68;38.55;;;;;;;;;;4999865;28;20050;-74
2021/10/25 15:22:49;;;;;;;89.97;39.67;;;;;;;;;;5003002;28;20607;-74
2021/10/25 15:25:18;;;;;;;93.70;40.85;;;;;;;;;;5006710;28;20100;-75
2021/10/25 15:27:44;;;;;;;87.00;41.45;;;;;;;;;;5006425;28;20049;-75
2021/10/25 15:30:11;;;;;;;77.18;38.50;;;;;;;;;;5008993;28;20092;-75
2021/10/25 15:32:39;;;;;;;77.20;37.85;;;;;;;;;;5004605;28;20052;-74
2021/10/25 15:35:06;;;;;;;79.28;39.50;;;;;;;;;;5042568;28;20046;-74
2021/10/25 15:37:33;;;;;;;88.45;39.33;;;;;;;;;;5005521;28;20521;-73
2021/10/25 15:40:00;;;;;;;82.63;40.08;;;;;;;;;;5007626;28;20038;-74
2021/10/25 15:42:27;;;;;;;82.00;40.67;;;;;;;;;;5009577;28;20041;-74
2021/10/25 15:44:56;;;;;;;81.80;40.90;;;;;;;;;;5008776;28;20057;-74
2021/10/25 15:47:22;;;;;;;82.35;40.25;;;;;;;;;;5008121;28;20216;-74
2021/10/25 15:49:49;;;;;;;83.57;38.63;;;;;;;;;;5006136;28;20057;-75
2021/10/25 15:52:16;;;;;;;88.40;41.42;;;;;;;;;;5008653;28;20385;-74